sensor_id;sensor_type;location;lat;lon;timestamp;P1;durP1;ratioP1;P2;durP2;ratioP2
22068;SDS011;13887;57.196;-2.100;2023-01-10T00:01:17;12.37;;;11.97;;
22068;SDS011;13887;57.196;-2.100;2023-01-10T00:03:44;12.20;;;11.80;;
22068;SDS011;13887;57.196;-2.100;2023-01-10T00:06:11;12.10;;;11.70;;
22068;SDS011;13887;57.196;-2.100;2023-01-10T00:08:38;12.23;;;11.83;;
22068;SDS011;13887;57.196;-2.100;2023-01-10T00:11:05;12.70;;;12.30;;
22068;SDS011;13887;57.196;-2.100;2023-01-10T00:13:54;12.93;;;12.53;;
22068;SDS011;13887;57.196;-2.100;2023-01-10T00:16:21;12.47;;;12.07;;
22068;SDS011;13887;57.196;-2.100;2023-01-10T00:18:49;12.80;;;12.40;;
22068;SDS011;13887;57.196;-2.100;2023-01-10T00:21:15;12.47;;;12.07;;
22068;SDS011;13887;57.196;-2.100;2023-01-10T00:23:42;12.67;;;12.27;;
22068;SDS011;13887;57.196;-2.100;2023-01-10T00:26:09;12.37;;;11.97;;
22068;SDS011;13887;57.196;-2.100;2023-01-10T00:28:37;13.00;;;12.60;;
22068;SDS011;13887;57.196;-2.100;2023-01-10T00:31:05;12.67;;;12.27;;
22068;SDS011;13887;57.196;-2.100;2023-01-10T00:33:33;12.80;;;12.40;;
22068;SDS011;13887;57.196;-2.100;2023-01-10T00:36:01;12.70;;;12.30;;
22068;SDS011;13887;57.196;-2.100;2023-01-10T00:38:29;12.60;;;12.20;;
22068;SDS011;13887;57.196;-2.100;2023-01-10T00:40:58;12.53;;;12.13;;
22068;SDS011;13887;57.196;-2.100;2023-01-10T00:43:25;12.90;;;12.50;;
22068;SDS011;13887;57.196;-2.100;2023-01-10T00:46:10;13.17;;;12.77;;
22068;SDS011;13887;57.196;-2.100;2023-01-10T00:48:37;13.50;;;13.00;;
22068;SDS011;13887;57.196;-2.100;2023-01-10T00:51:04;13.17;;;12.77;;
22068;SDS011;13887;57.196;-2.100;2023-01-10T00:53:31;12.83;;;12.43;;
22068;SDS011;13887;57.196;-2.100;2023-01-10T00:55:58;12.87;;;12.47;;
22068;SDS011;13887;57.196;-2.100;2023-01-10T00:58:25;13.00;;;12.60;;
22068;SDS011;13887;57.196;-2.100;2023-01-10T01:00:52;13.20;;;12.80;;
22068;SDS011;13887;57.196;-2.100;2023-01-10T01:03:19;12.50;;;12.10;;
22068;SDS011;13887;57.196;-2.100;2023-01-10T01:05:48;12.30;;;11.90;;
22068;SDS011;13887;57.196;-2.100;2023-01-10T01:08:16;12.50;;;12.10;;
22068;SDS011;13887;57.196;-2.100;2023-01-10T01:10:44;12.33;;;11.93;;
22068;SDS011;13887;57.196;-2.100;2023-01-10T01:13:12;12.90;;;12.50;;
22068;SDS011;13887;57.196;-2.100;2023-01-10T01:15:39;12.67;;;12.27;;
22068;SDS011;13887;57.196;-2.100;2023-01-10T01:18:06;13.00;;;12.60;;
22068;SDS011;13887;57.196;-2.100;2023-01-10T01:20:37;12.60;;;12.20;;
22068;SDS011;13887;57.196;-2.100;2023-01-10T01:23:05;12.87;;;12.47;;
22068;SDS011;13887;57.196;-2.100;2023-01-10T01:25:32;13.33;;;12.93;;
22068;SDS011;13887;57.196;-2.100;2023-01-10T01:27:59;13.10;;;12.70;;
22068;SDS011;13887;57.196;-2.100;2023-01-10T01:30:26;12.83;;;12.43;;
22068;SDS011;13887;57.196;-2.100;2023-01-10T01:32:53;12.83;;;12.43;;
22068;SDS011;13887;57.196;-2.100;2023-01-10T01:35:20;12.70;;;12.30;;
22068;SDS011;13887;57.196;-2.100;2023-01-10T01:37:47;12.77;;;12.37;;
22068;SDS011;13887;57.196;-2.100;2023-01-10T01:40:15;13.10;;;12.70;;
22068;SDS011;13887;57.196;-2.100;2023-01-10T01:42:44;13.60;;;13.10;;
22068;SDS011;13887;57.196;-2.100;2023-01-10T01:47:58;13.03;;;12.63;;
22068;SDS011;13887;57.196;-2.100;2023-01-10T01:53:47;13.20;;;12.80;;
22068;SDS011;13887;57.196;-2.100;2023-01-10T01:56:22;13.20;;;12.80;;
22068;SDS011;13887;57.196;-2.100;2023-01-10T01:59:01;13.30;;;12.90;;
22068;SDS011;13887;57.196;-2.100;2023-01-10T02:01:39;12.87;;;12.47;;
22068;SDS011;13887;57.196;-2.100;2023-01-10T02:04:23;13.30;;;12.90;;
22068;SDS011;13887;57.196;-2.100;2023-01-10T02:06:54;13.10;;;12.70;;
22068;SDS011;13887;57.196;-2.100;2023-01-10T02:09:24;13.00;;;12.60;;
22068;SDS011;13887;57.196;-2.100;2023-01-10T02:11:53;12.93;;;12.53;;
22068;SDS011;13887;57.196;-2.100;2023-01-10T02:14:20;13.50;;;13.00;;
22068;SDS011;13887;57.196;-2.100;2023-01-10T02:16:50;13.03;;;12.63;;
22068;SDS011;13887;57.196;-2.100;2023-01-10T02:22:07;13.30;;;12.90;;
22068;SDS011;13887;57.196;-2.100;2023-01-10T02:33:33;13.10;;;12.70;;
22068;SDS011;13887;57.196;-2.100;2023-01-10T02:44:17;13.53;;;13.03;;
22068;SDS011;13887;57.196;-2.100;2023-01-10T02:46:50;13.57;;;13.07;;
22068;SDS011;13887;57.196;-2.100;2023-01-10T02:49:17;13.40;;;12.93;;
22068;SDS011;13887;57.196;-2.100;2023-01-10T02:51:44;13.60;;;13.10;;
22068;SDS011;13887;57.196;-2.100;2023-01-10T02:54:20;13.20;;;12.80;;
22068;SDS011;13887;57.196;-2.100;2023-01-10T03:08:05;13.50;;;13.00;;
22068;SDS011;13887;57.196;-2.100;2023-01-10T03:10:46;13.50;;;13.00;;
22068;SDS011;13887;57.196;-2.100;2023-01-10T03:16:02;13.60;;;13.10;;
22068;SDS011;13887;57.196;-2.100;2023-01-10T03:18:36;13.53;;;13.03;;
22068;SDS011;13887;57.196;-2.100;2023-01-10T03:21:08;12.80;;;12.40;;
22068;SDS011;13887;57.196;-2.100;2023-01-10T03:23:36;13.43;;;12.93;;
22068;SDS011;13887;57.196;-2.100;2023-01-10T03:26:04;13.50;;;13.00;;
22068;SDS011;13887;57.196;-2.100;2023-01-10T03:28:40;13.40;;;12.90;;
22068;SDS011;13887;57.196;-2.100;2023-01-10T03:31:16;13.33;;;12.87;;
22068;SDS011;13887;57.196;-2.100;2023-01-10T03:34:10;12.83;;;12.43;;
22068;SDS011;13887;57.196;-2.100;2023-01-10T03:45:59;13.50;;;13.00;;
22068;SDS011;13887;57.196;-2.100;2023-01-10T03:48:32;13.40;;;12.90;;
22068;SDS011;13887;57.196;-2.100;2023-01-10T03:51:02;12.97;;;12.57;;
22068;SDS011;13887;57.196;-2.100;2023-01-10T03:53:31;13.00;;;12.60;;
22068;SDS011;13887;57.196;-2.100;2023-01-10T03:55:59;13.00;;;12.60;;
22068;SDS011;13887;57.196;-2.100;2023-01-10T03:58:27;12.73;;;12.33;;
22068;SDS011;13887;57.196;-2.100;2023-01-10T04:00:55;13.40;;;12.90;;
22068;SDS011;13887;57.196;-2.100;2023-01-10T04:03:22;12.97;;;12.57;;
22068;SDS011;13887;57.196;-2.100;2023-01-10T04:05:49;13.10;;;12.70;;
22068;SDS011;13887;57.196;-2.100;2023-01-10T04:08:16;13.73;;;13.23;;
22068;SDS011;13887;57.196;-2.100;2023-01-10T04:10:42;13.07;;;12.67;;
22068;SDS011;13887;57.196;-2.100;2023-01-10T04:13:09;13.40;;;12.93;;
22068;SDS011;13887;57.196;-2.100;2023-01-10T04:15:36;13.67;;;13.17;;
22068;SDS011;13887;57.196;-2.100;2023-01-10T04:18:03;13.83;;;13.33;;
22068;SDS011;13887;57.196;-2.100;2023-01-10T04:20:30;13.67;;;13.17;;
22068;SDS011;13887;57.196;-2.100;2023-01-10T04:22:57;13.90;;;13.40;;
22068;SDS011;13887;57.196;-2.100;2023-01-10T04:25:24;13.67;;;13.17;;
22068;SDS011;13887;57.196;-2.100;2023-01-10T04:27:52;14.00;;;13.50;;
22068;SDS011;13887;57.196;-2.100;2023-01-10T04:30:19;13.97;;;13.47;;
22068;SDS011;13887;57.196;-2.100;2023-01-10T04:32:46;14.00;;;13.50;;
22068;SDS011;13887;57.196;-2.100;2023-01-10T04:35:13;14.13;;;13.63;;
22068;SDS011;13887;57.196;-2.100;2023-01-10T04:37:40;14.07;;;13.57;;
22068;SDS011;13887;57.196;-2.100;2023-01-10T04:40:09;13.93;;;13.43;;
22068;SDS011;13887;57.196;-2.100;2023-01-10T04:42:36;13.43;;;12.93;;
22068;SDS011;13887;57.196;-2.100;2023-01-10T04:45:03;13.80;;;13.30;;
22068;SDS011;13887;57.196;-2.100;2023-01-10T04:47:30;13.40;;;12.90;;
22068;SDS011;13887;57.196;-2.100;2023-01-10T04:49:57;13.10;;;12.70;;
22068;SDS011;13887;57.196;-2.100;2023-01-10T04:52:24;13.53;;;13.03;;
22068;SDS011;13887;57.196;-2.100;2023-01-10T04:54:53;13.60;;;13.10;;
22068;SDS011;13887;57.196;-2.100;2023-01-10T04:57:20;13.90;;;13.40;;
22068;SDS011;13887;57.196;-2.100;2023-01-10T04:59:47;13.40;;;12.90;;
22068;SDS011;13887;57.196;-2.100;2023-01-10T05:02:14;13.20;;;12.77;;
22068;SDS011;13887;57.196;-2.100;2023-01-10T05:04:41;13.43;;;12.93;;
22068;SDS011;13887;57.196;-2.100;2023-01-10T05:07:08;13.10;;;12.70;;
22068;SDS011;13887;57.196;-2.100;2023-01-10T05:09:35;13.47;;;12.97;;
22068;SDS011;13887;57.196;-2.100;2023-01-10T05:12:02;13.77;;;13.27;;
22068;SDS011;13887;57.196;-2.100;2023-01-10T05:14:29;13.47;;;12.97;;
22068;SDS011;13887;57.196;-2.100;2023-01-10T05:16:56;13.20;;;12.77;;
22068;SDS011;13887;57.196;-2.100;2023-01-10T05:19:23;13.50;;;13.00;;
22068;SDS011;13887;57.196;-2.100;2023-01-10T05:21:49;13.77;;;13.27;;
22068;SDS011;13887;57.196;-2.100;2023-01-10T05:24:18;13.40;;;12.90;;
22068;SDS011;13887;57.196;-2.100;2023-01-10T05:26:45;13.60;;;13.10;;
22068;SDS011;13887;57.196;-2.100;2023-01-10T05:29:12;13.60;;;13.10;;
22068;SDS011;13887;57.196;-2.100;2023-01-10T05:31:41;13.60;;;13.10;;
22068;SDS011;13887;57.196;-2.100;2023-01-10T05:34:10;13.47;;;12.97;;
22068;SDS011;13887;57.196;-2.100;2023-01-10T05:36:38;13.57;;;13.07;;
22068;SDS011;13887;57.196;-2.100;2023-01-10T05:39:05;13.63;;;13.13;;
22068;SDS011;13887;57.196;-2.100;2023-01-10T05:41:32;13.43;;;12.93;;
22068;SDS011;13887;57.196;-2.100;2023-01-10T05:43:59;13.67;;;13.17;;
22068;SDS011;13887;57.196;-2.100;2023-01-10T05:46:26;13.27;;;12.80;;
22068;SDS011;13887;57.196;-2.100;2023-01-10T05:48:53;13.87;;;13.37;;
22068;SDS011;13887;57.196;-2.100;2023-01-10T05:51:19;13.60;;;13.10;;
22068;SDS011;13887;57.196;-2.100;2023-01-10T05:53:46;13.80;;;13.30;;
22068;SDS011;13887;57.196;-2.100;2023-01-10T05:56:15;14.10;;;13.60;;
22068;SDS011;13887;57.196;-2.100;2023-01-10T05:58:42;13.70;;;13.20;;
22068;SDS011;13887;57.196;-2.100;2023-01-10T06:01:12;13.33;;;12.83;;
22068;SDS011;13887;57.196;-2.100;2023-01-10T06:03:39;13.67;;;13.17;;
22068;SDS011;13887;57.196;-2.100;2023-01-10T06:06:06;13.30;;;12.80;;
22068;SDS011;13887;57.196;-2.100;2023-01-10T06:08:33;13.90;;;13.40;;
22068;SDS011;13887;57.196;-2.100;2023-01-10T06:11:02;13.60;;;13.10;;
22068;SDS011;13887;57.196;-2.100;2023-01-10T06:13:30;14.10;;;13.60;;
22068;SDS011;13887;57.196;-2.100;2023-01-10T06:15:57;14.00;;;13.50;;
22068;SDS011;13887;57.196;-2.100;2023-01-10T06:18:25;13.83;;;13.33;;
22068;SDS011;13887;57.196;-2.100;2023-01-10T06:20:52;14.00;;;13.50;;
22068;SDS011;13887;57.196;-2.100;2023-01-10T06:23:19;13.77;;;13.27;;
22068;SDS011;13887;57.196;-2.100;2023-01-10T06:25:46;13.80;;;13.30;;
22068;SDS011;13887;57.196;-2.100;2023-01-10T06:28:13;14.30;;;13.80;;
22068;SDS011;13887;57.196;-2.100;2023-01-10T06:30:40;13.87;;;13.37;;
22068;SDS011;13887;57.196;-2.100;2023-01-10T06:33:09;13.97;;;13.47;;
22068;SDS011;13887;57.196;-2.100;2023-01-10T06:35:37;13.60;;;13.10;;
22068;SDS011;13887;57.196;-2.100;2023-01-10T06:38:04;13.53;;;13.03;;
22068;SDS011;13887;57.196;-2.100;2023-01-10T06:40:31;13.47;;;12.97;;
22068;SDS011;13887;57.196;-2.100;2023-01-10T06:42:58;13.50;;;13.00;;
22068;SDS011;13887;57.196;-2.100;2023-01-10T06:45:25;13.70;;;13.20;;
22068;SDS011;13887;57.196;-2.100;2023-01-10T06:47:52;13.70;;;13.20;;
22068;SDS011;13887;57.196;-2.100;2023-01-10T06:50:19;13.70;;;13.20;;
22068;SDS011;13887;57.196;-2.100;2023-01-10T06:52:53;13.70;;;13.20;;
22068;SDS011;13887;57.196;-2.100;2023-01-10T06:55:24;13.80;;;13.30;;
22068;SDS011;13887;57.196;-2.100;2023-01-10T06:58:01;13.83;;;13.33;;
22068;SDS011;13887;57.196;-2.100;2023-01-10T07:00:30;13.93;;;13.43;;
22068;SDS011;13887;57.196;-2.100;2023-01-10T07:02:58;14.03;;;13.53;;
22068;SDS011;13887;57.196;-2.100;2023-01-10T07:05:26;14.00;;;13.50;;
22068;SDS011;13887;57.196;-2.100;2023-01-10T07:07:54;13.60;;;13.10;;
22068;SDS011;13887;57.196;-2.100;2023-01-10T07:10:23;13.80;;;13.30;;
22068;SDS011;13887;57.196;-2.100;2023-01-10T07:12:50;14.03;;;13.53;;
22068;SDS011;13887;57.196;-2.100;2023-01-10T07:15:17;14.47;;;13.97;;
22068;SDS011;13887;57.196;-2.100;2023-01-10T07:17:43;14.10;;;13.60;;
22068;SDS011;13887;57.196;-2.100;2023-01-10T07:20:11;14.70;;;14.20;;
22068;SDS011;13887;57.196;-2.100;2023-01-10T07:22:38;14.30;;;13.80;;
22068;SDS011;13887;57.196;-2.100;2023-01-10T07:25:05;14.30;;;13.80;;
22068;SDS011;13887;57.196;-2.100;2023-01-10T07:27:32;14.30;;;13.80;;
22068;SDS011;13887;57.196;-2.100;2023-01-10T07:29:59;14.10;;;13.60;;
22068;SDS011;13887;57.196;-2.100;2023-01-10T07:32:26;13.53;;;13.03;;
22068;SDS011;13887;57.196;-2.100;2023-01-10T07:34:53;14.23;;;13.73;;
22068;SDS011;13887;57.196;-2.100;2023-01-10T07:37:20;13.77;;;13.27;;
22068;SDS011;13887;57.196;-2.100;2023-01-10T07:39:47;12.70;;;12.30;;
22068;SDS011;13887;57.196;-2.100;2023-01-10T07:42:14;13.70;;;13.20;;
22068;SDS011;13887;57.196;-2.100;2023-01-10T07:44:41;13.40;;;12.90;;
22068;SDS011;13887;57.196;-2.100;2023-01-10T07:47:10;13.43;;;12.93;;
22068;SDS011;13887;57.196;-2.100;2023-01-10T07:49:37;13.23;;;12.83;;
22068;SDS011;13887;57.196;-2.100;2023-01-10T07:52:04;13.27;;;12.80;;
22068;SDS011;13887;57.196;-2.100;2023-01-10T07:54:33;13.50;;;13.00;;
22068;SDS011;13887;57.196;-2.100;2023-01-10T07:57:01;13.20;;;12.77;;
22068;SDS011;13887;57.196;-2.100;2023-01-10T07:59:28;13.17;;;12.77;;
22068;SDS011;13887;57.196;-2.100;2023-01-10T08:01:54;13.20;;;12.80;;
22068;SDS011;13887;57.196;-2.100;2023-01-10T08:04:21;12.82;;;12.43;;
22068;SDS011;13887;57.196;-2.100;2023-01-10T08:06:48;13.10;;;12.70;;
22068;SDS011;13887;57.196;-2.100;2023-01-10T08:09:15;13.10;;;12.70;;
22068;SDS011;13887;57.196;-2.100;2023-01-10T08:11:42;13.37;;;12.90;;
22068;SDS011;13887;57.196;-2.100;2023-01-10T08:14:09;12.70;;;12.30;;
22068;SDS011;13887;57.196;-2.100;2023-01-10T08:16:36;12.83;;;12.43;;
22068;SDS011;13887;57.196;-2.100;2023-01-10T08:19:03;12.50;;;12.10;;
22068;SDS011;13887;57.196;-2.100;2023-01-10T08:21:30;12.87;;;12.47;;
22068;SDS011;13887;57.196;-2.100;2023-01-10T08:23:57;12.80;;;12.40;;
22068;SDS011;13887;57.196;-2.100;2023-01-10T08:26:24;12.93;;;12.53;;
22068;SDS011;13887;57.196;-2.100;2023-01-10T08:28:51;13.00;;;12.60;;
22068;SDS011;13887;57.196;-2.100;2023-01-10T08:31:17;13.30;;;12.90;;
22068;SDS011;13887;57.196;-2.100;2023-01-10T08:33:44;12.70;;;12.30;;
22068;SDS011;13887;57.196;-2.100;2023-01-10T08:36:15;12.80;;;12.40;;
22068;SDS011;13887;57.196;-2.100;2023-01-10T08:38:43;12.60;;;12.20;;
22068;SDS011;13887;57.196;-2.100;2023-01-10T08:41:10;12.53;;;12.13;;
22068;SDS011;13887;57.196;-2.100;2023-01-10T08:43:39;13.20;;;12.80;;
22068;SDS011;13887;57.196;-2.100;2023-01-10T08:46:06;13.13;;;12.73;;
22068;SDS011;13887;57.196;-2.100;2023-01-10T08:48:33;13.33;;;12.93;;
22068;SDS011;13887;57.196;-2.100;2023-01-10T08:51:07;13.30;;;12.90;;
22068;SDS011;13887;57.196;-2.100;2023-01-10T08:53:35;13.70;;;13.20;;
22068;SDS011;13887;57.196;-2.100;2023-01-10T08:56:04;13.30;;;12.90;;
22068;SDS011;13887;57.196;-2.100;2023-01-10T08:58:31;13.77;;;13.27;;
22068;SDS011;13887;57.196;-2.100;2023-01-10T09:00:58;13.53;;;13.03;;
22068;SDS011;13887;57.196;-2.100;2023-01-10T09:03:25;13.73;;;13.23;;
22068;SDS011;13887;57.196;-2.100;2023-01-10T09:05:51;12.93;;;12.53;;
22068;SDS011;13887;57.196;-2.100;2023-01-10T09:08:18;13.40;;;13.00;;
22068;SDS011;13887;57.196;-2.100;2023-01-10T09:10:45;13.03;;;12.63;;
22068;SDS011;13887;57.196;-2.100;2023-01-10T09:13:13;13.30;;;12.90;;
22068;SDS011;13887;57.196;-2.100;2023-01-10T09:15:41;12.77;;;12.37;;
22068;SDS011;13887;57.196;-2.100;2023-01-10T09:18:09;12.87;;;12.47;;
22068;SDS011;13887;57.196;-2.100;2023-01-10T09:20:38;12.90;;;12.50;;
22068;SDS011;13887;57.196;-2.100;2023-01-10T09:23:07;13.07;;;12.67;;
22068;SDS011;13887;57.196;-2.100;2023-01-10T09:25:36;13.10;;;12.70;;
22068;SDS011;13887;57.196;-2.100;2023-01-10T09:28:04;12.27;;;11.87;;
22068;SDS011;13887;57.196;-2.100;2023-01-10T09:30:31;11.83;;;11.43;;
22068;SDS011;13887;57.196;-2.100;2023-01-10T09:32:58;12.20;;;11.80;;
22068;SDS011;13887;57.196;-2.100;2023-01-10T09:35:26;13.07;;;12.63;;
22068;SDS011;13887;57.196;-2.100;2023-01-10T09:37:55;12.90;;;12.50;;
22068;SDS011;13887;57.196;-2.100;2023-01-10T09:46:06;12.37;;;11.97;;
22068;SDS011;13887;57.196;-2.100;2023-01-10T09:53:41;12.50;;;12.10;;
22068;SDS011;13887;57.196;-2.100;2023-01-10T09:56:12;11.90;;;11.50;;
22068;SDS011;13887;57.196;-2.100;2023-01-10T09:58:40;12.37;;;11.97;;
22068;SDS011;13887;57.196;-2.100;2023-01-10T10:01:20;12.80;;;12.40;;
22068;SDS011;13887;57.196;-2.100;2023-01-10T10:06:43;12.87;;;12.47;;
22068;SDS011;13887;57.196;-2.100;2023-01-10T10:09:15;13.23;;;12.83;;
22068;SDS011;13887;57.196;-2.100;2023-01-10T10:17:08;12.90;;;12.50;;
22068;SDS011;13887;57.196;-2.100;2023-01-10T10:20:02;12.87;;;12.47;;
22068;SDS011;13887;57.196;-2.100;2023-01-10T10:22:56;12.90;;;12.50;;
22068;SDS011;13887;57.196;-2.100;2023-01-10T10:28:24;13.50;;;13.00;;
22068;SDS011;13887;57.196;-2.100;2023-01-10T10:37:10;12.73;;;12.33;;
22068;SDS011;13887;57.196;-2.100;2023-01-10T10:39:50;12.80;;;12.40;;
22068;SDS011;13887;57.196;-2.100;2023-01-10T10:42:27;12.80;;;12.40;;
22068;SDS011;13887;57.196;-2.100;2023-01-10T10:45:06;12.50;;;12.10;;
22068;SDS011;13887;57.196;-2.100;2023-01-10T10:48:28;13.10;;;12.70;;
22068;SDS011;13887;57.196;-2.100;2023-01-10T10:53:30;12.10;;;11.70;;
22068;SDS011;13887;57.196;-2.100;2023-01-10T10:55:58;12.87;;;12.47;;
22068;SDS011;13887;57.196;-2.100;2023-01-10T10:58:27;12.00;;;11.60;;
22068;SDS011;13887;57.196;-2.100;2023-01-10T11:00:56;12.17;;;11.77;;
22068;SDS011;13887;57.196;-2.100;2023-01-10T11:03:27;12.77;;;12.37;;
22068;SDS011;13887;57.196;-2.100;2023-01-10T11:05:55;12.40;;;12.00;;
22068;SDS011;13887;57.196;-2.100;2023-01-10T11:08:24;12.83;;;12.43;;
22068;SDS011;13887;57.196;-2.100;2023-01-10T11:10:55;12.30;;;11.90;;
22068;SDS011;13887;57.196;-2.100;2023-01-10T11:13:46;12.27;;;11.87;;
22068;SDS011;13887;57.196;-2.100;2023-01-10T11:16:32;12.30;;;11.90;;
22068;SDS011;13887;57.196;-2.100;2023-01-10T11:19:15;12.10;;;11.70;;
22068;SDS011;13887;57.196;-2.100;2023-01-10T11:21:56;12.63;;;12.23;;
22068;SDS011;13887;57.196;-2.100;2023-01-10T11:27:01;12.17;;;11.77;;
22068;SDS011;13887;57.196;-2.100;2023-01-10T11:29:42;12.10;;;11.70;;
22068;SDS011;13887;57.196;-2.100;2023-01-10T11:32:14;12.23;;;11.83;;
22068;SDS011;13887;57.196;-2.100;2023-01-10T11:35:05;12.43;;;12.03;;
22068;SDS011;13887;57.196;-2.100;2023-01-10T11:37:35;12.27;;;11.87;;
22068;SDS011;13887;57.196;-2.100;2023-01-10T11:40:21;12.83;;;12.43;;
22068;SDS011;13887;57.196;-2.100;2023-01-10T11:42:51;12.17;;;11.77;;
22068;SDS011;13887;57.196;-2.100;2023-01-10T11:45:24;12.13;;;11.73;;
22068;SDS011;13887;57.196;-2.100;2023-01-10T11:47:59;12.40;;;12.00;;
22068;SDS011;13887;57.196;-2.100;2023-01-10T11:51:14;12.07;;;11.67;;
22068;SDS011;13887;57.196;-2.100;2023-01-10T11:56:36;12.50;;;12.10;;
22068;SDS011;13887;57.196;-2.100;2023-01-10T11:59:12;13.27;;;12.87;;
22068;SDS011;13887;57.196;-2.100;2023-01-10T12:01:47;12.53;;;12.13;;
22068;SDS011;13887;57.196;-2.100;2023-01-10T12:04:46;12.60;;;12.20;;
22068;SDS011;13887;57.196;-2.100;2023-01-10T12:07:16;12.70;;;12.30;;
22068;SDS011;13887;57.196;-2.100;2023-01-10T12:12:27;12.83;;;12.43;;
22068;SDS011;13887;57.196;-2.100;2023-01-10T12:14:57;12.50;;;12.10;;
22068;SDS011;13887;57.196;-2.100;2023-01-10T12:17:26;12.90;;;12.50;;
22068;SDS011;13887;57.196;-2.100;2023-01-10T12:19:56;12.87;;;12.47;;
22068;SDS011;13887;57.196;-2.100;2023-01-10T12:22:29;13.43;;;12.97;;
22068;SDS011;13887;57.196;-2.100;2023-01-10T12:24:57;13.40;;;12.93;;
22068;SDS011;13887;57.196;-2.100;2023-01-10T12:27:27;12.83;;;12.43;;
22068;SDS011;13887;57.196;-2.100;2023-01-10T12:30:04;13.73;;;13.23;;
22068;SDS011;13887;57.196;-2.100;2023-01-10T12:32:40;13.50;;;13.00;;
22068;SDS011;13887;57.196;-2.100;2023-01-10T12:35:22;12.63;;;12.23;;
22068;SDS011;13887;57.196;-2.100;2023-01-10T12:37:58;12.70;;;12.30;;
22068;SDS011;13887;57.196;-2.100;2023-01-10T12:40:45;12.63;;;12.23;;
22068;SDS011;13887;57.196;-2.100;2023-01-10T12:43:24;12.27;;;11.87;;
22068;SDS011;13887;57.196;-2.100;2023-01-10T12:46:19;12.60;;;12.20;;
22068;SDS011;13887;57.196;-2.100;2023-01-10T12:49:11;13.10;;;12.70;;
22068;SDS011;13887;57.196;-2.100;2023-01-10T12:51:48;12.67;;;12.27;;
22068;SDS011;13887;57.196;-2.100;2023-01-10T12:54:23;12.70;;;12.30;;
22068;SDS011;13887;57.196;-2.100;2023-01-10T12:56:53;12.70;;;12.30;;
22068;SDS011;13887;57.196;-2.100;2023-01-10T12:59:26;12.70;;;12.30;;
22068;SDS011;13887;57.196;-2.100;2023-01-10T13:02:04;12.30;;;11.90;;
22068;SDS011;13887;57.196;-2.100;2023-01-10T13:04:35;13.03;;;12.63;;
22068;SDS011;13887;57.196;-2.100;2023-01-10T13:07:03;12.70;;;12.30;;
22068;SDS011;13887;57.196;-2.100;2023-01-10T13:09:31;12.57;;;12.17;;
22068;SDS011;13887;57.196;-2.100;2023-01-10T13:12:02;12.47;;;12.07;;
22068;SDS011;13887;57.196;-2.100;2023-01-10T13:14:58;13.03;;;12.63;;
22068;SDS011;13887;57.196;-2.100;2023-01-10T13:17:48;12.17;;;11.77;;
22068;SDS011;13887;57.196;-2.100;2023-01-10T13:22:58;12.17;;;11.77;;
22068;SDS011;13887;57.196;-2.100;2023-01-10T13:25:27;12.20;;;11.80;;
22068;SDS011;13887;57.196;-2.100;2023-01-10T13:28:02;12.37;;;11.97;;
22068;SDS011;13887;57.196;-2.100;2023-01-10T13:30:30;12.33;;;11.93;;
22068;SDS011;13887;57.196;-2.100;2023-01-10T13:33:16;12.43;;;12.03;;
22068;SDS011;13887;57.196;-2.100;2023-01-10T13:35:47;12.57;;;12.17;;
22068;SDS011;13887;57.196;-2.100;2023-01-10T13:38:20;12.33;;;11.93;;
22068;SDS011;13887;57.196;-2.100;2023-01-10T13:41:11;12.73;;;12.33;;
22068;SDS011;13887;57.196;-2.100;2023-01-10T13:43:58;12.73;;;12.33;;
22068;SDS011;13887;57.196;-2.100;2023-01-10T13:46:55;13.13;;;12.73;;
22068;SDS011;13887;57.196;-2.100;2023-01-10T13:49:25;12.90;;;12.50;;
22068;SDS011;13887;57.196;-2.100;2023-01-10T13:52:37;12.17;;;11.77;;
22068;SDS011;13887;57.196;-2.100;2023-01-10T13:54:59;12.77;;;12.37;;
22068;SDS011;13887;57.196;-2.100;2023-01-10T14:00:58;12.67;;;12.27;;
22068;SDS011;13887;57.196;-2.100;2023-01-10T14:06:12;13.20;;;12.80;;
22068;SDS011;13887;57.196;-2.100;2023-01-10T14:09:43;13.23;;;12.83;;
22068;SDS011;13887;57.196;-2.100;2023-01-10T14:16:52;12.57;;;12.17;;
22068;SDS011;13887;57.196;-2.100;2023-01-10T14:19:44;12.70;;;12.30;;
22068;SDS011;13887;57.196;-2.100;2023-01-10T14:22:26;12.67;;;12.27;;
22068;SDS011;13887;57.196;-2.100;2023-01-10T14:24:53;12.93;;;12.53;;
22068;SDS011;13887;57.196;-2.100;2023-01-10T14:27:20;12.43;;;12.03;;
22068;SDS011;13887;57.196;-2.100;2023-01-10T14:29:50;12.80;;;12.40;;
22068;SDS011;13887;57.196;-2.100;2023-01-10T14:35:04;13.47;;;13.07;;
22068;SDS011;13887;57.196;-2.100;2023-01-10T14:37:41;12.90;;;12.50;;
22068;SDS011;13887;57.196;-2.100;2023-01-10T14:42:55;13.23;;;12.83;;
22068;SDS011;13887;57.196;-2.100;2023-01-10T14:45:33;13.17;;;12.77;;
22068;SDS011;13887;57.196;-2.100;2023-01-10T14:48:21;12.67;;;12.27;;
22068;SDS011;13887;57.196;-2.100;2023-01-10T14:53:34;13.50;;;13.00;;
22068;SDS011;13887;57.196;-2.100;2023-01-10T14:56:01;13.40;;;12.90;;
22068;SDS011;13887;57.196;-2.100;2023-01-10T14:58:28;13.50;;;13.00;;
22068;SDS011;13887;57.196;-2.100;2023-01-10T15:00:55;13.57;;;13.07;;
22068;SDS011;13887;57.196;-2.100;2023-01-10T15:03:22;13.57;;;13.07;;
22068;SDS011;13887;57.196;-2.100;2023-01-10T15:05:51;13.80;;;13.30;;
22068;SDS011;13887;57.196;-2.100;2023-01-10T15:08:24;13.77;;;13.27;;
22068;SDS011;13887;57.196;-2.100;2023-01-10T15:10:54;13.83;;;13.33;;
22068;SDS011;13887;57.196;-2.100;2023-01-10T15:13:26;13.20;;;12.80;;
22068;SDS011;13887;57.196;-2.100;2023-01-10T15:15:53;13.50;;;13.00;;
22068;SDS011;13887;57.196;-2.100;2023-01-10T15:20:55;13.97;;;13.47;;
22068;SDS011;13887;57.196;-2.100;2023-01-10T15:23:22;14.03;;;13.53;;
22068;SDS011;13887;57.196;-2.100;2023-01-10T15:25:53;13.90;;;13.40;;
22068;SDS011;13887;57.196;-2.100;2023-01-10T15:28:23;13.87;;;13.37;;
22068;SDS011;13887;57.196;-2.100;2023-01-10T15:30:52;13.57;;;13.07;;
22068;SDS011;13887;57.196;-2.100;2023-01-10T15:33:23;14.00;;;13.50;;
22068;SDS011;13887;57.196;-2.100;2023-01-10T15:35:52;14.03;;;13.53;;
22068;SDS011;13887;57.196;-2.100;2023-01-10T15:38:21;13.77;;;13.27;;
22068;SDS011;13887;57.196;-2.100;2023-01-10T15:40:56;13.43;;;12.93;;
22068;SDS011;13887;57.196;-2.100;2023-01-10T15:43:28;13.70;;;13.20;;
22068;SDS011;13887;57.196;-2.100;2023-01-10T15:45:56;13.50;;;13.00;;
22068;SDS011;13887;57.196;-2.100;2023-01-10T15:50:52;13.63;;;13.13;;
22068;SDS011;13887;57.196;-2.100;2023-01-10T15:56:35;12.80;;;12.40;;
22068;SDS011;13887;57.196;-2.100;2023-01-10T15:59:27;12.47;;;12.07;;
22068;SDS011;13887;57.196;-2.100;2023-01-10T16:04:41;13.00;;;12.60;;
22068;SDS011;13887;57.196;-2.100;2023-01-10T16:07:12;13.07;;;12.67;;
22068;SDS011;13887;57.196;-2.100;2023-01-10T16:09:47;13.10;;;12.70;;
22068;SDS011;13887;57.196;-2.100;2023-01-10T16:12:25;13.03;;;12.63;;
22068;SDS011;13887;57.196;-2.100;2023-01-10T16:15:18;12.90;;;12.50;;
22068;SDS011;13887;57.196;-2.100;2023-01-10T16:17:47;12.80;;;12.40;;
22068;SDS011;13887;57.196;-2.100;2023-01-10T16:20:15;12.40;;;12.00;;
22068;SDS011;13887;57.196;-2.100;2023-01-10T16:22:44;13.10;;;12.70;;
22068;SDS011;13887;57.196;-2.100;2023-01-10T16:25:16;12.97;;;12.57;;
22068;SDS011;13887;57.196;-2.100;2023-01-10T16:27:45;12.87;;;12.47;;
22068;SDS011;13887;57.196;-2.100;2023-01-10T16:30:19;13.40;;;13.00;;
22068;SDS011;13887;57.196;-2.100;2023-01-10T16:32:51;13.27;;;12.87;;